• Join FlightAware (Why Join?)
  • Login
  • US Flag 
12:25PM EDT


 

Airport Tracker/Info


-or-


 

Live Flight TrackerFlight Track Log ✈ N724HS ✈ 11-Jun-2014 ✈ KORL - KFLL

Flight Track Log - Related Links

Times and Time Zones

All times are in EDT time to prevent confusion due to time zone crossing. See the N724HS flight status page for this flight to view local times or setup timezone preferences in your user account.

Time Position Orientation Groundspeed Altitude Reporting Facility
EDT Latitude Longitude Course Direction KTS MPH feet Rate Location/Type
03:57PM 28.5167 -81.3833 237° Southwest 183 211 1,400  Level Orlando TRACON
03:58PM 28.5000 -81.4333 249° West 172 198 3,300 1,380 Climbing Orlando TRACON
03:59PM 28.4833 -81.4833 249° West 203 234 4,200 1,200 Climbing Orlando TRACON
04:00PM 28.4500 -81.5333 233° Southwest 195 224 5,600 1,740 Climbing Orlando TRACON
04:01PM 28.4000 -81.5667 210° Southwest 181 208 8,200 1,860 Climbing Orlando TRACON
04:02PM 28.3500 -81.5333 150° Southeast 185 213 10,000 1,680 Climbing Orlando TRACON
04:03PM 28.3167 -81.5000 139° Southeast 201 231 11,500 1,440 Climbing Orlando TRACON
04:04PM 28.2667 -81.4500 139° Southeast 205 236 12,900 1,320 Climbing Orlando TRACON
04:05PM 28.2333 -81.4167 139° Southeast 206 237 14,200 720 Climbing Orlando TRACON
04:07PM 28.1489 -81.3511 146° Southeast 229 264 14,900 240 Climbing Miami Center
04:08PM 28.0761 -81.3044 150° Southeast 253 291 15,000  Climbing Miami Center
04:09PM 28.0369 -81.3547 229° Southwest 231 266 15,000 -60 Level Miami Center
04:10PM 28.0142 -81.4156 247° West 231 266 14,900 -60 Descending Miami Center
04:11PM 27.9742 -81.4761 233° Southwest 236 272 14,900  Level Miami Center
04:12PM 27.9153 -81.5356 222° Southwest 236 272 14,900 420 Level Miami Center
04:13PM 27.8531 -81.5197 167° South 245 282 15,800 900 Climbing Miami Center
04:14PM 27.7986 -81.4839 150° Southeast 228 262 16,800 480 Climbing Miami Center
04:15PM 27.7408 -81.4483 151° Southeast 237 273 16,900  Climbing Miami Center
04:16PM 27.6775 -81.4100 152° Southeast 250 288 16,900  Level Miami Center
04:17PM 27.6033 -81.3625 150° Southeast 263 303 17,000  Climbing Miami Center
04:18PM 27.5408 -81.3242 151° Southeast 265 305 17,000  Level Miami Center
04:19PM 27.4725 -81.2817 151° Southeast 265 305 17,000  Level Miami Center
04:20PM 27.4019 -81.2703 172° South 257 296 17,000  Level Miami Center
04:21PM 27.3375 -81.3119 210° Southwest 253 291 17,000  Level Miami Center
04:22PM 27.2744 -81.3528 210° Southwest 253 291 17,000 -60 Level Miami Center
04:23PM 27.2164 -81.3908 210° Southwest 254 292 16,900 -60 Descending Miami Center
04:25PM 27.1550 -81.4311 210° Southwest 254 292 16,900  Level Miami Center
04:26PM 27.0933 -81.4717 210° Southwest 254 292 16,900  Level Miami Center
04:27PM 27.0219 -81.5197 211° Southwest 254 292 16,900  Level Miami Center
04:28PM 26.9614 -81.5597 210° Southwest 254 292 16,900  Level Miami Center
04:29PM 26.9003 -81.5997 210° Southwest 255 293 16,900  Level Miami Center
04:30PM 26.8353 -81.6428 211° Southwest 255 293 16,900  Level Miami Center
04:31PM 26.7700 -81.6475 184° South 266 306 16,900  Level Miami Center
04:32PM 26.7011 -81.5992 148° Southeast 269 310 16,900  Level Miami Center
04:33PM 26.6364 -81.5583 151° Southeast 271 312 16,900  Level Miami Center
04:34PM 26.5656 -81.5139 151° Southeast 269 310 16,900  Level Miami Center
04:35PM 26.5003 -81.4725 150° Southeast 269 310 16,900  Level Miami Center
04:36PM 26.4350 -81.4322 151° Southeast 273 314 16,900  Level Miami Center
04:37PM 26.3639 -81.3869 150° Southeast 273 314 16,900 -660 Level Miami Center
04:38PM 26.3003 -81.3381 145° Southeast 287 330 15,600 -1,740 Descending Miami Center
04:39PM 26.2558 -81.2514 120° Southeast 302 348 13,400 -2,100 Descending Miami Center
04:40PM 26.2139 -81.1714 120° Southeast 301 346 11,400 -1,980 Descending Miami Center
04:41PM 26.1797 -81.1072 121° Southeast 272 313 9,800 -2,040 Descending Miami Center
04:41PM 26.1719 -81.0911 118° Southeast 280 322 9,300 -2,040 Descending Miami Center
04:42PM 26.1369 -81.0292 122° Southeast 259 298 7,500 -1,680 Descending Miami Center
04:43PM 26.1039 -80.9617 119° Southeast 242 278 6,100 -720 Descending Miami Center
04:44PM 26.0939 -80.8911 99° East 247 284 6,100  Level Miami Center
04:45PM 26.1014 -80.8128 84° East 256 295 6,100  Level Miami Center
04:46PM 26.1061 -80.7389 86° East 259 298 6,100  Level Miami Center
04:46PM 26.1069 -80.7256 86° East 255 293 6,100  Level Miami Center
04:47PM 26.1117 -80.6536 86° East 263 303 6,100  Level Miami Center
04:47PM 26.1131 -80.6439 81° East 259 298 6,100  Level Miami Center
04:48PM 26.1175 -80.5658 86° East 257 296 6,100  Level Miami Center
04:48PM 26.1181 -80.5642 70° East 260 299 6,100  Level Miami Center
04:49PM 26.1228 -80.4850 86° East 258 297 6,100  Level Miami Center
04:49PM 26.1222 -80.4850 180° South 258 297 6,100  Level Miami Center
04:50PM 26.1250 -80.4178 87° East 227 261 6,100  Level Miami Center
04:50PM 26.1256 -80.4108 85° East 241 277 6,100  Level Miami Center
04:51PM 26.1294 -80.3486 86° East 230 265 6,100  Level Miami Center
04:51PM 26.1300 -80.3264 88° East 230 265 6,100  Level Miami Center
04:52PM 26.1319 -80.2769 87° East 232 267 6,100  Level Miami Center
04:52PM 26.1342 -80.2547 84° East 230 265 6,100  Level Miami Center
04:53PM 26.1369 -80.1961 87° East 230 265 6,100 -240 Level Miami Center
04:53PM 26.1383 -80.1836 83° East 230 265 5,900 -1,380 Descending Miami Center
04:54PM 26.1414 -80.1222 87° East 228 262 4,700 -1,380 Descending Miami Center
04:54PM 26.1422 -80.1122 85° East 231 266 4,500 -600 Descending Miami Center
04:55PM 26.1453 -80.0597 86° East 201 231 4,100 -420 Descending Miami Center
04:55PM 26.1467 -80.0508 80° East 204 235 4,100  Level Miami Center
04:56PM 26.1511 -80.0022 84° East 201 231 4,100  Level Miami Center
04:56PM 26.1514 -79.9897 89° East 200 230 4,100 -900 Level Miami Center
04:57PM 26.1194 -79.9697 151° Southeast 181 208 3,300 -1,020 Descending Miami Center
04:57PM 26.1047 -79.9667 169° South 184 212 3,100 -840 Descending Miami Center
04:58PM 26.0783 -79.9897 218° Southwest 183 211 2,500 -1,020 Descending Miami Center
04:58PM 26.0758 -80.0161 264° West 180 207 2,100 -780 Descending Miami Center
05:00PM 26.0764 -80.0697 271° West 177 204 1,300 -840 Descending Miami Center
05:00PM 26.0764 -80.0894 270° West 125 144 800 -720 Descending Miami Center
05:01PM 26.0764 -80.1039 270° West 114 131 600 -480 Descending Miami Center
05:02PM 26.0767 -80.1419 270° West 108 124 100 -540 Descending Miami Center